Hillsboro, Tennessee
Current Conditions -  °F | °C
As of 7:35 PM on Wednesday 22 Oct 2014 (Local Time) from KTHA Reporting Station
Clear Clear  
Wind Chill: 50°   Ceiling: Unl
Heat Index: 50°   Visibility: 10mi
Dew Point: 41°   Wind: 0mph
Humidity: 71%   Direction: NA
Pressure: 30.2"   Gusts: NA
Location:  35.41°N, 85.97°W
Report Text: KTHA 230035Z AUTO 00000KT 10SM CLR 10/05 A3020 RMK
Loading
Personal Weather Stations






























Interactive Weather Map
Tropical Storm Tracking
New forecast layout! Learn more

10-Day Weather Forecast

Advertisements
Track Severe Weather on mobile